sensor_id;sensor_type;location;lat;lon;timestamp;pressure;altitude;pressure_sealevel;temperature;humidity
55733;BME280;41637;52.364;9.910;2023-01-25T00:01:35;103043.40;;;0.66;82.35
55733;BME280;41637;52.364;9.910;2023-01-25T00:04:03;103033.83;;;0.66;82.63
55733;BME280;41637;52.364;9.910;2023-01-25T00:06:29;103031.23;;;0.65;82.83
55733;BME280;41637;52.364;9.910;2023-01-25T00:08:56;103025.40;;;0.63;82.52
55733;BME280;41637;52.364;9.910;2023-01-25T00:11:23;103019.01;;;0.61;82.80
55733;BME280;41637;52.364;9.910;2023-01-25T00:13:54;103021.94;;;0.62;82.84
55733;BME280;41637;52.364;9.910;2023-01-25T00:16:22;103020.63;;;0.65;82.88
55733;BME280;41637;52.364;9.910;2023-01-25T00:18:50;103017.27;;;0.66;83.04
55733;BME280;41637;52.364;9.910;2023-01-25T00:21:20;103015.84;;;0.67;83.18
55733;BME280;41637;52.364;9.910;2023-01-25T00:23:47;103006.45;;;0.67;83.17
55733;BME280;41637;52.364;9.910;2023-01-25T00:26:15;103006.09;;;0.67;83.02
55733;BME280;41637;52.364;9.910;2023-01-25T00:28:42;103003.90;;;0.65;83.36
55733;BME280;41637;52.364;9.910;2023-01-25T00:31:15;103002.58;;;0.63;83.48
55733;BME280;41637;52.364;9.910;2023-01-25T00:34:32;102998.77;;;0.63;83.54
55733;BME280;41637;52.364;9.910;2023-01-25T00:37:13;102998.79;;;0.62;83.52
55733;BME280;41637;52.364;9.910;2023-01-25T00:39:40;102993.86;;;0.64;83.65
55733;BME280;41637;52.364;9.910;2023-01-25T00:42:11;102991.32;;;0.66;83.81
55733;BME280;41637;52.364;9.910;2023-01-25T00:44:38;102989.89;;;0.67;83.76
55733;BME280;41637;52.364;9.910;2023-01-25T00:47:06;102990.29;;;0.66;83.89
55733;BME280;41637;52.364;9.910;2023-01-25T00:49:33;102989.30;;;0.65;83.96
55733;BME280;41637;52.364;9.910;2023-01-25T00:52:00;102993.63;;;0.65;84.16
55733;BME280;41637;52.364;9.910;2023-01-25T00:54:27;102990.02;;;0.64;84.37
55733;BME280;41637;52.364;9.910;2023-01-25T00:56:54;102990.55;;;0.63;84.47
55733;BME280;41637;52.364;9.910;2023-01-25T00:59:23;102987.98;;;0.63;84.61
55733;BME280;41637;52.364;9.910;2023-01-25T01:01:50;102983.31;;;0.61;84.58
55733;BME280;41637;52.364;9.910;2023-01-25T01:04:19;102980.61;;;0.59;84.48
55733;BME280;41637;52.364;9.910;2023-01-25T01:06:46;102979.66;;;0.56;84.58
55733;BME280;41637;52.364;9.910;2023-01-25T01:09:17;102976.87;;;0.56;84.75
55733;BME280;41637;52.364;9.910;2023-01-25T01:11:44;102973.01;;;0.57;84.61
55733;BME280;41637;52.364;9.910;2023-01-25T01:14:11;102972.50;;;0.57;84.69
55733;BME280;41637;52.364;9.910;2023-01-25T01:16:41;102980.00;;;0.56;84.84
55733;BME280;41637;52.364;9.910;2023-01-25T01:19:08;102980.17;;;0.57;84.88
55733;BME280;41637;52.364;9.910;2023-01-25T01:21:36;102980.98;;;0.58;84.94
55733;BME280;41637;52.364;9.910;2023-01-25T01:24:04;102980.59;;;0.59;85.13
55733;BME280;41637;52.364;9.910;2023-01-25T01:26:31;102978.29;;;0.60;84.87
55733;BME280;41637;52.364;9.910;2023-01-25T01:28:58;102973.40;;;0.61;84.97
55733;BME280;41637;52.364;9.910;2023-01-25T01:31:26;102966.52;;;0.64;84.98
55733;BME280;41637;52.364;9.910;2023-01-25T01:33:55;102960.59;;;0.64;85.06
55733;BME280;41637;52.364;9.910;2023-01-25T01:36:25;102960.48;;;0.61;85.14
55733;BME280;41637;52.364;9.910;2023-01-25T01:38:52;102962.31;;;0.59;85.16
55733;BME280;41637;52.364;9.910;2023-01-25T01:41:20;102961.64;;;0.58;85.24
55733;BME280;41637;52.364;9.910;2023-01-25T01:43:49;102960.66;;;0.62;85.20
55733;BME280;41637;52.364;9.910;2023-01-25T01:46:35;102957.09;;;0.64;85.42
55733;BME280;41637;52.364;9.910;2023-01-25T01:52:00;102941.68;;;0.62;85.27
55733;BME280;41637;52.364;9.910;2023-01-25T01:54:57;102937.09;;;0.58;85.52
55733;BME280;41637;52.364;9.910;2023-01-25T01:57:50;102936.30;;;0.56;85.67
55733;BME280;41637;52.364;9.910;2023-01-25T02:00:31;102933.71;;;0.56;85.80
55733;BME280;41637;52.364;9.910;2023-01-25T02:03:00;102928.71;;;0.54;86.25
55733;BME280;41637;52.364;9.910;2023-01-25T02:05:35;102927.11;;;0.51;86.64
55733;BME280;41637;52.364;9.910;2023-01-25T02:08:08;102926.83;;;0.49;86.64
55733;BME280;41637;52.364;9.910;2023-01-25T02:10:37;102932.23;;;0.48;86.83
55733;BME280;41637;52.364;9.910;2023-01-25T02:13:04;102930.98;;;0.49;86.87
55733;BME280;41637;52.364;9.910;2023-01-25T02:15:54;102926.80;;;0.50;86.89
55733;BME280;41637;52.364;9.910;2023-01-25T02:18:24;102927.59;;;0.52;87.02
55733;BME280;41637;52.364;9.910;2023-01-25T02:20:52;102926.35;;;0.52;87.26
55733;BME280;41637;52.364;9.910;2023-01-25T02:26:06;102925.09;;;0.48;87.12
55733;BME280;41637;52.364;9.910;2023-01-25T02:28:41;102926.88;;;0.48;87.41
55733;BME280;41637;52.364;9.910;2023-01-25T02:31:10;102925.40;;;0.49;87.40
55733;BME280;41637;52.364;9.910;2023-01-25T02:33:37;102926.88;;;0.52;87.29
55733;BME280;41637;52.364;9.910;2023-01-25T02:38:36;102928.11;;;0.51;87.02
55733;BME280;41637;52.364;9.910;2023-01-25T02:41:07;102931.45;;;0.51;86.78
55733;BME280;41637;52.364;9.910;2023-01-25T02:43:37;102933.80;;;0.48;86.55
55733;BME280;41637;52.364;9.910;2023-01-25T02:46:24;102930.79;;;0.45;86.34
55733;BME280;41637;52.364;9.910;2023-01-25T02:48:54;102924.38;;;0.44;86.37
55733;BME280;41637;52.364;9.910;2023-01-25T02:51:23;102922.05;;;0.41;86.44
55733;BME280;41637;52.364;9.910;2023-01-25T02:53:50;102915.98;;;0.40;86.59
55733;BME280;41637;52.364;9.910;2023-01-25T02:56:18;102908.27;;;0.42;86.71
55733;BME280;41637;52.364;9.910;2023-01-25T02:58:45;102903.45;;;0.45;86.85
55733;BME280;41637;52.364;9.910;2023-01-25T03:01:12;102901.90;;;0.45;86.74
55733;BME280;41637;52.364;9.910;2023-01-25T03:03:40;102898.27;;;0.44;86.82
55733;BME280;41637;52.364;9.910;2023-01-25T03:06:10;102894.27;;;0.44;86.77
55733;BME280;41637;52.364;9.910;2023-01-25T03:08:37;102893.27;;;0.43;86.85
55733;BME280;41637;52.364;9.910;2023-01-25T03:11:05;102889.02;;;0.39;86.84
55733;BME280;41637;52.364;9.910;2023-01-25T03:13:33;102886.80;;;0.38;86.92
55733;BME280;41637;52.364;9.910;2023-01-25T03:16:06;102883.33;;;0.38;86.92
55733;BME280;41637;52.364;9.910;2023-01-25T03:18:34;102883.34;;;0.38;87.11
55733;BME280;41637;52.364;9.910;2023-01-25T03:23:38;102883.23;;;0.35;87.08
55733;BME280;41637;52.364;9.910;2023-01-25T03:26:10;102882.77;;;0.34;87.22
55733;BME280;41637;52.364;9.910;2023-01-25T03:28:39;102881.89;;;0.34;87.40
55733;BME280;41637;52.364;9.910;2023-01-25T03:31:07;102882.90;;;0.35;87.31
55733;BME280;41637;52.364;9.910;2023-01-25T03:33:35;102880.97;;;0.36;87.41
55733;BME280;41637;52.364;9.910;2023-01-25T03:36:02;102881.91;;;0.34;87.50
55733;BME280;41637;52.364;9.910;2023-01-25T03:38:30;102883.96;;;0.35;87.70
55733;BME280;41637;52.364;9.910;2023-01-25T03:40:58;102880.83;;;0.35;87.48
55733;BME280;41637;52.364;9.910;2023-01-25T03:43:25;102874.59;;;0.34;87.77
55733;BME280;41637;52.364;9.910;2023-01-25T03:45:57;102869.19;;;0.34;87.81
55733;BME280;41637;52.364;9.910;2023-01-25T03:48:26;102865.30;;;0.36;87.93
55733;BME280;41637;52.364;9.910;2023-01-25T03:50:55;102859.18;;;0.37;88.05
55733;BME280;41637;52.364;9.910;2023-01-25T03:53:24;102857.99;;;0.36;88.16
55733;BME280;41637;52.364;9.910;2023-01-25T03:55:59;102857.73;;;0.33;88.08
55733;BME280;41637;52.364;9.910;2023-01-25T03:58:28;102857.11;;;0.31;88.20
55733;BME280;41637;52.364;9.910;2023-01-25T04:00:57;102850.64;;;0.28;88.48
55733;BME280;41637;52.364;9.910;2023-01-25T04:03:26;102847.36;;;0.22;88.87
55733;BME280;41637;52.364;9.910;2023-01-25T04:06:06;102848.52;;;0.18;89.05
55733;BME280;41637;52.364;9.910;2023-01-25T04:08:33;102848.23;;;0.17;89.16
55733;BME280;41637;52.364;9.910;2023-01-25T04:11:05;102845.70;;;0.15;89.24
55733;BME280;41637;52.364;9.910;2023-01-25T04:13:33;102847.25;;;0.10;89.28
55733;BME280;41637;52.364;9.910;2023-01-25T04:16:04;102842.13;;;0.07;89.27
55733;BME280;41637;52.364;9.910;2023-01-25T04:18:33;102837.86;;;0.05;89.44
55733;BME280;41637;52.364;9.910;2023-01-25T04:21:00;102829.14;;;0.01;89.52
55733;BME280;41637;52.364;9.910;2023-01-25T04:23:27;102825.25;;;-0.03;89.82
55733;BME280;41637;52.364;9.910;2023-01-25T04:26:01;102823.83;;;-0.07;90.13
55733;BME280;41637;52.364;9.910;2023-01-25T04:28:31;102816.98;;;-0.10;90.29
55733;BME280;41637;52.364;9.910;2023-01-25T04:30:59;102817.79;;;-0.13;90.42
55733;BME280;41637;52.364;9.910;2023-01-25T04:33:26;102818.62;;;-0.16;90.95
55733;BME280;41637;52.364;9.910;2023-01-25T04:35:53;102818.15;;;-0.18;91.19
55733;BME280;41637;52.364;9.910;2023-01-25T04:38:20;102817.56;;;-0.22;91.39
55733;BME280;41637;52.364;9.910;2023-01-25T04:40:50;102822.27;;;-0.22;91.10
55733;BME280;41637;52.364;9.910;2023-01-25T04:43:18;102820.74;;;-0.23;91.46
55733;BME280;41637;52.364;9.910;2023-01-25T04:45:46;102816.80;;;-0.25;91.47
55733;BME280;41637;52.364;9.910;2023-01-25T04:48:13;102815.45;;;-0.26;91.75
55733;BME280;41637;52.364;9.910;2023-01-25T04:50:41;102812.30;;;-0.30;91.76
55733;BME280;41637;52.364;9.910;2023-01-25T04:53:09;102814.84;;;-0.33;91.77
55733;BME280;41637;52.364;9.910;2023-01-25T04:55:37;102816.91;;;-0.33;91.77
55733;BME280;41637;52.364;9.910;2023-01-25T04:58:04;102813.07;;;-0.33;91.81
55733;BME280;41637;52.364;9.910;2023-01-25T05:00:31;102812.77;;;-0.34;91.96
55733;BME280;41637;52.364;9.910;2023-01-25T05:02:58;102812.08;;;-0.34;91.82
55733;BME280;41637;52.364;9.910;2023-01-25T05:05:25;102807.32;;;-0.32;91.94
55733;BME280;41637;52.364;9.910;2023-01-25T05:07:52;102807.09;;;-0.30;91.91
55733;BME280;41637;52.364;9.910;2023-01-25T05:10:19;102805.50;;;-0.30;91.78
55733;BME280;41637;52.364;9.910;2023-01-25T05:12:46;102802.66;;;-0.28;91.86
55733;BME280;41637;52.364;9.910;2023-01-25T05:15:13;102806.48;;;-0.28;91.66
55733;BME280;41637;52.364;9.910;2023-01-25T05:17:43;102801.91;;;-0.31;91.48
55733;BME280;41637;52.364;9.910;2023-01-25T05:20:11;102797.13;;;-0.34;91.66
55733;BME280;41637;52.364;9.910;2023-01-25T05:22:38;102795.50;;;-0.37;91.77
55733;BME280;41637;52.364;9.910;2023-01-25T05:25:05;102792.67;;;-0.42;92.09
55733;BME280;41637;52.364;9.910;2023-01-25T05:27:52;102789.60;;;-0.48;92.48
55733;BME280;41637;52.364;9.910;2023-01-25T05:30:19;102788.94;;;-0.49;92.42
55733;BME280;41637;52.364;9.910;2023-01-25T05:32:47;102784.77;;;-0.49;92.62
55733;BME280;41637;52.364;9.910;2023-01-25T05:35:14;102787.65;;;-0.47;92.72
55733;BME280;41637;52.364;9.910;2023-01-25T05:37:42;102786.77;;;-0.47;92.90
55733;BME280;41637;52.364;9.910;2023-01-25T05:40:09;102780.78;;;-0.44;92.89
55733;BME280;41637;52.364;9.910;2023-01-25T05:42:37;102773.81;;;-0.44;92.95
55733;BME280;41637;52.364;9.910;2023-01-25T05:45:04;102770.08;;;-0.42;92.74
55733;BME280;41637;52.364;9.910;2023-01-25T05:47:31;102775.73;;;-0.39;92.97
55733;BME280;41637;52.364;9.910;2023-01-25T05:49:58;102776.92;;;-0.38;93.00
55733;BME280;41637;52.364;9.910;2023-01-25T05:52:26;102781.31;;;-0.34;92.97
55733;BME280;41637;52.364;9.910;2023-01-25T05:54:53;102782.73;;;-0.30;92.79
55733;BME280;41637;52.364;9.910;2023-01-25T05:57:20;102782.77;;;-0.26;92.65
55733;BME280;41637;52.364;9.910;2023-01-25T05:59:47;102775.69;;;-0.23;92.58
55733;BME280;41637;52.364;9.910;2023-01-25T06:02:16;102774.86;;;-0.19;92.48
55733;BME280;41637;52.364;9.910;2023-01-25T06:04:44;102770.42;;;-0.16;92.49
55733;BME280;41637;52.364;9.910;2023-01-25T06:07:10;102773.52;;;-0.15;92.18
55733;BME280;41637;52.364;9.910;2023-01-25T06:09:37;102768.77;;;-0.13;92.22
55733;BME280;41637;52.364;9.910;2023-01-25T06:12:04;102769.20;;;-0.11;92.21
55733;BME280;41637;52.364;9.910;2023-01-25T06:14:32;102765.51;;;-0.10;92.07
55733;BME280;41637;52.364;9.910;2023-01-25T06:16:58;102764.84;;;-0.06;92.15
55733;BME280;41637;52.364;9.910;2023-01-25T06:19:26;102764.05;;;-0.04;92.16
55733;BME280;41637;52.364;9.910;2023-01-25T06:21:53;102762.97;;;-0.02;92.23
55733;BME280;41637;52.364;9.910;2023-01-25T06:24:20;102760.36;;;-0.02;92.06
55733;BME280;41637;52.364;9.910;2023-01-25T06:26:47;102757.49;;;0.00;92.12
55733;BME280;41637;52.364;9.910;2023-01-25T06:29:14;102761.32;;;0.01;92.18
55733;BME280;41637;52.364;9.910;2023-01-25T06:31:41;102758.36;;;0.01;92.23
55733;BME280;41637;52.364;9.910;2023-01-25T06:34:08;102757.67;;;0.00;92.28
55733;BME280;41637;52.364;9.910;2023-01-25T06:36:35;102755.29;;;-0.02;92.29
55733;BME280;41637;52.364;9.910;2023-01-25T06:39:02;102755.96;;;-0.01;92.26
55733;BME280;41637;52.364;9.910;2023-01-25T06:41:29;102757.03;;;-0.01;92.28
55733;BME280;41637;52.364;9.910;2023-01-25T06:44:03;102754.39;;;-0.01;92.56
55733;BME280;41637;52.364;9.910;2023-01-25T06:46:33;102757.87;;;-0.01;92.29
55733;BME280;41637;52.364;9.910;2023-01-25T06:49:00;102758.77;;;-0.01;92.44
55733;BME280;41637;52.364;9.910;2023-01-25T06:51:28;102753.95;;;-0.03;92.52
55733;BME280;41637;52.364;9.910;2023-01-25T06:53:55;102753.84;;;-0.05;92.85
55733;BME280;41637;52.364;9.910;2023-01-25T06:56:24;102754.61;;;-0.07;92.74
55733;BME280;41637;52.364;9.910;2023-01-25T06:58:52;102758.05;;;-0.06;92.99
55733;BME280;41637;52.364;9.910;2023-01-25T07:01:23;102757.52;;;-0.06;93.08
55733;BME280;41637;52.364;9.910;2023-01-25T07:03:54;102756.24;;;-0.04;93.10
55733;BME280;41637;52.364;9.910;2023-01-25T07:06:22;102756.23;;;-0.04;93.11
55733;BME280;41637;52.364;9.910;2023-01-25T07:08:49;102754.02;;;-0.05;93.29
55733;BME280;41637;52.364;9.910;2023-01-25T07:11:17;102752.84;;;-0.06;93.30
55733;BME280;41637;52.364;9.910;2023-01-25T07:13:45;102753.82;;;-0.04;93.58
55733;BME280;41637;52.364;9.910;2023-01-25T07:16:15;102747.67;;;-0.02;93.96
55733;BME280;41637;52.364;9.910;2023-01-25T07:18:43;102746.98;;;-0.02;94.11
55733;BME280;41637;52.364;9.910;2023-01-25T07:21:18;102748.53;;;-0.02;94.06
55733;BME280;41637;52.364;9.910;2023-01-25T07:23:48;102746.80;;;-0.02;93.97
55733;BME280;41637;52.364;9.910;2023-01-25T07:28:44;102744.49;;;0.04;94.00
55733;BME280;41637;52.364;9.910;2023-01-25T07:31:11;102741.44;;;0.07;94.03
55733;BME280;41637;52.364;9.910;2023-01-25T07:33:39;102743.58;;;0.10;93.94
55733;BME280;41637;52.364;9.910;2023-01-25T07:36:08;102746.66;;;0.11;93.82
55733;BME280;41637;52.364;9.910;2023-01-25T07:38:36;102744.70;;;0.13;93.87
55733;BME280;41637;52.364;9.910;2023-01-25T07:41:03;102747.32;;;0.12;93.66
55733;BME280;41637;52.364;9.910;2023-01-25T07:43:30;102750.38;;;0.09;93.84
55733;BME280;41637;52.364;9.910;2023-01-25T07:46:02;102746.08;;;0.08;93.98
55733;BME280;41637;52.364;9.910;2023-01-25T07:48:30;102747.98;;;0.09;93.95
55733;BME280;41637;52.364;9.910;2023-01-25T07:51:04;102737.45;;;0.06;94.34
55733;BME280;41637;52.364;9.910;2023-01-25T07:53:41;102736.17;;;0.03;94.15
55733;BME280;41637;52.364;9.910;2023-01-25T07:56:09;102732.30;;;0.04;94.11
55733;BME280;41637;52.364;9.910;2023-01-25T07:58:37;102730.48;;;0.07;94.36
55733;BME280;41637;52.364;9.910;2023-01-25T08:01:08;102729.13;;;0.10;94.21
55733;BME280;41637;52.364;9.910;2023-01-25T08:03:35;102730.60;;;0.13;94.05
55733;BME280;41637;52.364;9.910;2023-01-25T08:06:03;102729.64;;;0.15;94.25
55733;BME280;41637;52.364;9.910;2023-01-25T08:08:34;102727.34;;;0.16;94.13
55733;BME280;41637;52.364;9.910;2023-01-25T08:11:15;102728.30;;;0.18;94.38
55733;BME280;41637;52.364;9.910;2023-01-25T08:13:43;102726.46;;;0.21;94.16
55733;BME280;41637;52.364;9.910;2023-01-25T08:16:13;102728.57;;;0.25;94.11
55733;BME280;41637;52.364;9.910;2023-01-25T08:18:40;102727.80;;;0.27;94.15
55733;BME280;41637;52.364;9.910;2023-01-25T08:21:07;102721.58;;;0.26;93.94
55733;BME280;41637;52.364;9.910;2023-01-25T08:23:35;102721.06;;;0.26;93.84
55733;BME280;41637;52.364;9.910;2023-01-25T08:26:03;102720.38;;;0.25;93.95
55733;BME280;41637;52.364;9.910;2023-01-25T08:28:30;102719.29;;;0.27;94.28
55733;BME280;41637;52.364;9.910;2023-01-25T08:33:57;102717.15;;;0.28;94.30
55733;BME280;41637;52.364;9.910;2023-01-25T08:36:25;102710.66;;;0.29;94.43
55733;BME280;41637;52.364;9.910;2023-01-25T08:38:58;102703.48;;;0.30;94.34
55733;BME280;41637;52.364;9.910;2023-01-25T08:41:26;102700.55;;;0.29;94.45
55733;BME280;41637;52.364;9.910;2023-01-25T08:43:59;102700.07;;;0.24;94.76
55733;BME280;41637;52.364;9.910;2023-01-25T08:46:28;102700.54;;;0.21;94.95
55733;BME280;41637;52.364;9.910;2023-01-25T08:48:58;102703.40;;;0.14;95.50
55733;BME280;41637;52.364;9.910;2023-01-25T08:51:26;102702.43;;;0.08;95.77
55733;BME280;41637;52.364;9.910;2023-01-25T08:53:53;102698.46;;;0.02;95.71
55733;BME280;41637;52.364;9.910;2023-01-25T08:56:20;102688.56;;;0.02;95.79
55733;BME280;41637;52.364;9.910;2023-01-25T08:58:48;102681.80;;;0.06;96.00
55733;BME280;41637;52.364;9.910;2023-01-25T09:01:16;102676.48;;;0.08;95.92
55733;BME280;41637;52.364;9.910;2023-01-25T09:03:45;102676.73;;;0.11;96.06
55733;BME280;41637;52.364;9.910;2023-01-25T09:06:13;102679.61;;;0.13;96.11
55733;BME280;41637;52.364;9.910;2023-01-25T09:08:40;102677.09;;;0.15;96.33
55733;BME280;41637;52.364;9.910;2023-01-25T09:11:10;102679.56;;;0.18;96.19
55733;BME280;41637;52.364;9.910;2023-01-25T09:13:38;102669.83;;;0.23;96.16
55733;BME280;41637;52.364;9.910;2023-01-25T09:16:16;102660.45;;;0.27;96.25
55733;BME280;41637;52.364;9.910;2023-01-25T09:18:44;102657.23;;;0.25;96.32
55733;BME280;41637;52.364;9.910;2023-01-25T09:21:13;102660.58;;;0.24;96.20
55733;BME280;41637;52.364;9.910;2023-01-25T09:23:41;102668.55;;;0.20;96.14
55733;BME280;41637;52.364;9.910;2023-01-25T09:26:30;102672.64;;;0.18;96.09
55733;BME280;41637;52.364;9.910;2023-01-25T09:28:58;102678.13;;;0.15;96.25
55733;BME280;41637;52.364;9.910;2023-01-25T09:31:25;102667.44;;;0.13;96.22
55733;BME280;41637;52.364;9.910;2023-01-25T09:33:53;102662.50;;;0.10;96.35
55733;BME280;41637;52.364;9.910;2023-01-25T09:36:22;102661.23;;;0.11;96.19
55733;BME280;41637;52.364;9.910;2023-01-25T09:38:49;102658.73;;;0.13;96.30
55733;BME280;41637;52.364;9.910;2023-01-25T09:46:55;102648.79;;;0.23;96.41
55733;BME280;41637;52.364;9.910;2023-01-25T09:54:30;102627.69;;;0.19;95.95
55733;BME280;41637;52.364;9.910;2023-01-25T09:57:16;102621.32;;;0.17;96.03
55733;BME280;41637;52.364;9.910;2023-01-25T09:59:46;102620.23;;;0.18;96.12
55733;BME280;41637;52.364;9.910;2023-01-25T10:05:04;102621.39;;;0.20;96.15
55733;BME280;41637;52.364;9.910;2023-01-25T10:10:04;102613.18;;;0.21;96.10
55733;BME280;41637;52.364;9.910;2023-01-25T10:12:35;102608.96;;;0.22;96.19
55733;BME280;41637;52.364;9.910;2023-01-25T10:15:26;102608.05;;;0.19;95.86
55733;BME280;41637;52.364;9.910;2023-01-25T10:20:57;102606.34;;;0.18;96.05
55733;BME280;41637;52.364;9.910;2023-01-25T10:26:23;102602.60;;;0.20;96.07
55733;BME280;41637;52.364;9.910;2023-01-25T10:29:11;102597.11;;;0.18;95.79
55733;BME280;41637;52.364;9.910;2023-01-25T10:31:47;102585.59;;;0.15;95.84
55733;BME280;41637;52.364;9.910;2023-01-25T10:34:19;102579.58;;;0.13;95.77
55733;BME280;41637;52.364;9.910;2023-01-25T10:36:51;102572.85;;;0.16;96.09
55733;BME280;41637;52.364;9.910;2023-01-25T10:39:19;102564.02;;;0.19;96.19
55733;BME280;41637;52.364;9.910;2023-01-25T10:41:53;102557.72;;;0.20;96.05
55733;BME280;41637;52.364;9.910;2023-01-25T10:44:24;102554.10;;;0.24;96.28
55733;BME280;41637;52.364;9.910;2023-01-25T10:46:55;102552.05;;;0.27;96.29
55733;BME280;41637;52.364;9.910;2023-01-25T10:49:26;102550.92;;;0.28;96.16
55733;BME280;41637;52.364;9.910;2023-01-25T10:51:55;102551.21;;;0.26;96.11
55733;BME280;41637;52.364;9.910;2023-01-25T10:54:25;102548.16;;;0.24;95.99
55733;BME280;41637;52.364;9.910;2023-01-25T10:56:55;102544.78;;;0.21;96.27
55733;BME280;41637;52.364;9.910;2023-01-25T10:59:24;102541.56;;;0.19;96.20
55733;BME280;41637;52.364;9.910;2023-01-25T11:01:53;102540.34;;;0.19;96.24
55733;BME280;41637;52.364;9.910;2023-01-25T11:04:34;102535.89;;;0.17;96.24
55733;BME280;41637;52.364;9.910;2023-01-25T11:07:03;102534.09;;;0.18;96.40
55733;BME280;41637;52.364;9.910;2023-01-25T11:09:37;102530.69;;;0.17;96.43
55733;BME280;41637;52.364;9.910;2023-01-25T11:12:05;102524.45;;;0.16;96.60
55733;BME280;41637;52.364;9.910;2023-01-25T11:14:41;102519.38;;;0.17;96.80
55733;BME280;41637;52.364;9.910;2023-01-25T11:17:21;102516.24;;;0.17;96.96
55733;BME280;41637;52.364;9.910;2023-01-25T11:20:05;102515.71;;;0.13;96.83
55733;BME280;41637;52.364;9.910;2023-01-25T11:22:33;102519.34;;;0.14;96.71
55733;BME280;41637;52.364;9.910;2023-01-25T11:27:49;102508.89;;;0.18;96.61
55733;BME280;41637;52.364;9.910;2023-01-25T11:30:17;102504.14;;;0.15;96.20
55733;BME280;41637;52.364;9.910;2023-01-25T11:32:47;102497.18;;;0.15;96.32
55733;BME280;41637;52.364;9.910;2023-01-25T11:35:20;102493.12;;;0.13;96.58
55733;BME280;41637;52.364;9.910;2023-01-25T11:40:52;102482.89;;;0.16;96.78
55733;BME280;41637;52.364;9.910;2023-01-25T11:44:01;102466.85;;;0.21;97.09
55733;BME280;41637;52.364;9.910;2023-01-25T11:46:55;102458.09;;;0.23;96.97
55733;BME280;41637;52.364;9.910;2023-01-25T11:49:44;102448.55;;;0.22;96.98
55733;BME280;41637;52.364;9.910;2023-01-25T11:52:26;102445.25;;;0.26;97.16
55733;BME280;41637;52.364;9.910;2023-01-25T11:55:02;102440.59;;;0.29;97.00
55733;BME280;41637;52.364;9.910;2023-01-25T11:57:47;102438.58;;;0.35;97.08
55733;BME280;41637;52.364;9.910;2023-01-25T12:03:15;102425.87;;;0.39;96.83
55733;BME280;41637;52.364;9.910;2023-01-25T12:06:20;102423.04;;;0.41;96.73
55733;BME280;41637;52.364;9.910;2023-01-25T12:09:10;102417.95;;;0.42;96.63
55733;BME280;41637;52.364;9.910;2023-01-25T12:14:46;102400.61;;;0.31;96.47
55733;BME280;41637;52.364;9.910;2023-01-25T12:26:04;102373.36;;;0.30;96.52
55733;BME280;41637;52.364;9.910;2023-01-25T12:28:38;102370.63;;;0.29;96.63
55733;BME280;41637;52.364;9.910;2023-01-25T12:33:58;102359.86;;;0.29;96.80
55733;BME280;41637;52.364;9.910;2023-01-25T12:36:39;102346.20;;;0.26;96.57
55733;BME280;41637;52.364;9.910;2023-01-25T12:39:21;102336.91;;;0.21;96.78
55733;BME280;41637;52.364;9.910;2023-01-25T12:41:54;102339.80;;;0.14;96.95
55733;BME280;41637;52.364;9.910;2023-01-25T12:44:32;102341.40;;;0.13;97.04
55733;BME280;41637;52.364;9.910;2023-01-25T12:47:11;102338.23;;;0.14;97.27
55733;BME280;41637;52.364;9.910;2023-01-25T12:52:29;102315.76;;;0.18;97.15
55733;BME280;41637;52.364;9.910;2023-01-25T12:55:11;102302.61;;;0.17;97.08
55733;BME280;41637;52.364;9.910;2023-01-25T13:00:56;102299.16;;;0.12;97.42
55733;BME280;41637;52.364;9.910;2023-01-25T13:11:56;102268.75;;;0.23;97.44
55733;BME280;41637;52.364;9.910;2023-01-25T13:14:38;102268.08;;;0.27;97.48
55733;BME280;41637;52.364;9.910;2023-01-25T13:17:31;102271.85;;;0.24;97.40
55733;BME280;41637;52.364;9.910;2023-01-25T13:20:08;102268.23;;;0.19;97.39
55733;BME280;41637;52.364;9.910;2023-01-25T13:25:21;102254.06;;;0.17;97.40
55733;BME280;41637;52.364;9.910;2023-01-25T13:27:49;102246.72;;;0.14;97.34
55733;BME280;41637;52.364;9.910;2023-01-25T13:35:29;102239.37;;;0.11;97.52
55733;BME280;41637;52.364;9.910;2023-01-25T13:37:59;102237.75;;;0.09;97.32
55733;BME280;41637;52.364;9.910;2023-01-25T13:40:32;102233.65;;;0.07;97.41
55733;BME280;41637;52.364;9.910;2023-01-25T13:43:16;102229.77;;;0.08;97.34
55733;BME280;41637;52.364;9.910;2023-01-25T13:45:46;102222.77;;;0.09;97.49
55733;BME280;41637;52.364;9.910;2023-01-25T13:48:20;102224.06;;;0.08;97.46
55733;BME280;41637;52.364;9.910;2023-01-25T13:50:53;102221.52;;;0.06;97.46
55733;BME280;41637;52.364;9.910;2023-01-25T13:53:23;102219.24;;;0.06;97.51
55733;BME280;41637;52.364;9.910;2023-01-25T13:55:55;102219.21;;;0.03;97.40
55733;BME280;41637;52.364;9.910;2023-01-25T13:58:32;102219.30;;;0.02;97.43
55733;BME280;41637;52.364;9.910;2023-01-25T14:01:01;102217.79;;;0.00;97.52
55733;BME280;41637;52.364;9.910;2023-01-25T14:03:40;102219.51;;;0.01;97.48
55733;BME280;41637;52.364;9.910;2023-01-25T14:06:15;102221.98;;;0.04;97.54
55733;BME280;41637;52.364;9.910;2023-01-25T14:08:44;102222.23;;;0.06;97.56
55733;BME280;41637;52.364;9.910;2023-01-25T14:11:26;102221.41;;;0.08;97.60
55733;BME280;41637;52.364;9.910;2023-01-25T14:14:01;102215.05;;;0.14;97.69
55733;BME280;41637;52.364;9.910;2023-01-25T14:16:29;102215.27;;;0.13;97.55
55733;BME280;41637;52.364;9.910;2023-01-25T14:19:22;102208.02;;;0.08;97.25
55733;BME280;41637;52.364;9.910;2023-01-25T14:22:11;102207.70;;;0.03;97.34
55733;BME280;41637;52.364;9.910;2023-01-25T14:24:38;102207.27;;;0.02;97.34
55733;BME280;41637;52.364;9.910;2023-01-25T14:27:05;102202.63;;;0.05;97.37
55733;BME280;41637;52.364;9.910;2023-01-25T14:29:33;102204.39;;;0.08;97.52
55733;BME280;41637;52.364;9.910;2023-01-25T14:32:01;102202.27;;;0.08;97.22
55733;BME280;41637;52.364;9.910;2023-01-25T14:34:28;102195.21;;;0.07;97.18
55733;BME280;41637;52.364;9.910;2023-01-25T14:37:12;102191.02;;;0.03;97.00
55733;BME280;41637;52.364;9.910;2023-01-25T14:39:41;102192.23;;;-0.05;97.16
55733;BME280;41637;52.364;9.910;2023-01-25T14:42:08;102192.11;;;-0.05;97.30